UPSVAC Airport Information Service

Cleveland Hopkins International Airport

ICAO: KCLE Country: United States
Latitude: 41.4103 Longitude: -81.8539
Latest Arrival : UPS1278 (KSDF-KCLE) Latest Departure : UPS1279 (KCLE-KSDF)


WX CaptureLIVE
Data provided by noaa.gov | Fetched at 00:10:21

METAR : KCLE 142351Z 31004KT 10SM -RA SCT048 SCT070 BKN090 18/14 A2984 RMK AO2 PK WND 33041/2300 RAB01 TSE30 SLP118 P0011 60011 T01830139 10239 20172 50005

TAF : KCLE 142338Z 1500/1606 32010KT 6SM -SHRA BKN050 FM150015 35007KT P6SM BKN100 FM151600 34014G22KT P6SM SCT050 FM160000 35007KT P6SM BKN150


Runway Data for KCLE
Data provided by openaviationdata.com

Runway ID Mag Var Hdg Length Elevation Surface ILS Freq ILS Id ILS Slope
06L -7 56° 8995 ft 791 ft Concrete 111.55 ILIZ 3
06R -7 56° 8993 ft 791 ft Concrete 111.9 ICLE 3
06C -7 56° 7091 ft 791 ft Concrete -- -- --
10 -7 100° 6008 ft 791 ft Asphalt -- -- --
24L -7 236° 8993 ft 791 ft Concrete 109.9 IHPI 3
24R -7 236° 8995 ft 791 ft Concrete 111.55 IPVY 3
24C -7 236° 7091 ft 791 ft Concrete -- -- --
28 -7 280° 6008 ft 791 ft Asphalt 110.7 IPXP 3

Cleveland Hopkins International Airport, United States
Use only for reference purposes



Not for navigational purposes.